Terminal Aerodrome Forecast
Issued by NWS Knoxville/Tri Cities, TN

Home | Current Version | Previous Version | Text Only | Print | Product List | Glossary On
Versions: 1 2 3 4 5 6 7 8 9 10 11 12
000
FTUS44 KMRX 202322
TAFTYS
TAF
KTYS 202322Z 2100/2124 20010KT P6SM BKN070 BKN250 WS020/16035KT
     FM210600 22005KT P6SM BKN050 WS020/21035KT
     FM211500 23010KT P6SM VCSH OVC030=

USA.gov is the U.S. government's official web portal to all federal, state and local government web resources and services.